Time;durP1;ratioP1;P1;durP2;ratioP2;P2;SDS_P1;SDS_P2;PMS_P1;PMS_P2;Temp;Humidity;BMP_temperature;BMP_pressure;BME280_temperature;BME280_humidity;BME280_pressure;Samples;Min_cycle;Max_cycle;Signal;HPM_P1;HPM_P2
2022/02/06 00:01:15;;;;;;;5.03;2.98;;;;;;;0.76;69.24;96651.16;1698799;83;21013;-85
2022/02/06 00:03:41;;;;;;;8.30;3.47;;;;;;;0.76;69.43;96645.58;1698899;83;21446;-84
2022/02/06 00:06:08;;;;;;;4.15;2.83;;;;;;;0.76;69.40;96643.03;1692982;83;20967;-84
2022/02/06 00:08:34;;;;;;;5.70;3.35;;;;;;;0.79;69.41;96638.95;1693537;83;20984;-84
2022/02/06 00:11:00;;;;;;;6.00;3.17;;;;;;;0.81;69.48;96637.13;1669883;83;20964;-83
2022/02/06 00:13:26;;;;;;;8.53;4.97;;;;;;;0.83;69.33;96637.81;1734637;81;20978;-83
2022/02/06 00:15:52;;;;;;;4.20;3.27;;;;;;;0.84;69.43;96630.95;1731855;81;21407;-83
2022/02/06 00:18:18;;;;;;;6.78;3.40;;;;;;;0.82;69.23;96632.36;1734194;81;21083;-85
2022/02/06 00:20:52;;;;;;;5.78;3.50;;;;;;;0.80;69.37;96621.86;1732983;81;21051;-85
2022/02/06 00:23:17;;;;;;;4.17;2.92;;;;;;;0.78;69.30;96613.49;1732549;81;21299;-85
2022/02/06 00:41:25;;;;;;;4.85;3.20;;;;;;;0.78;69.20;96592.56;1732057;81;21094;-85
2022/02/06 00:43:51;;;;;;;4.95;2.80;;;;;;;0.79;69.17;96592.09;1728767;81;20939;-85
2022/02/06 00:46:17;;;;;;;5.10;3.10;;;;;;;0.80;69.23;96590.70;1722294;81;21369;-85
2022/02/06 00:48:50;;;;;;;5.35;3.25;;;;;;;0.82;69.05;96585.50;1708856;81;21461;-85
2022/02/06 00:51:18;;;;;;;5.17;3.00;;;;;;;0.85;69.13;96591.19;1731232;81;21375;-85
2022/02/06 00:53:41;;;;;;;5.67;3.40;;;;;;;0.90;69.08;96592.11;1707421;81;21117;-85
2022/02/06 00:56:09;;;;;;;5.15;2.98;;;;;;;0.95;69.27;96590.00;1673718;84;21051;-85
2022/02/06 00:58:35;;;;;;;3.35;2.95;;;;;;;0.99;68.89;96585.02;1689123;83;21131;-85
2022/02/06 01:01:01;;;;;;;2.98;2.30;;;;;;;1.05;68.88;96591.41;1689960;83;21436;-85
2022/02/06 01:03:27;;;;;;;2.70;2.33;;;;;;;1.09;68.20;96582.08;1696266;83;21372;-85
2022/02/06 01:05:54;;;;;;;4.35;2.98;;;;;;;1.13;68.47;96581.38;1683820;83;20984;-85
2022/02/06 01:08:20;;;;;;;4.33;2.67;;;;;;;1.17;68.02;96576.39;1689421;83;20995;-85
2022/02/06 01:10:46;;;;;;;3.70;2.87;;;;;;;1.19;68.32;96571.96;1685337;83;20979;-85
2022/02/06 01:13:29;;;;;;;5.30;2.60;;;;;;;1.25;67.51;96564.27;1694345;83;21005;-86
2022/02/06 01:15:59;;;;;;;5.05;2.67;;;;;;;1.28;68.20;96561.45;1659599;83;21490;-85
2022/02/06 01:18:25;;;;;;;5.37;2.80;;;;;;;1.28;67.77;96567.39;1733104;81;21070;-85
2022/02/06 01:20:56;;;;;;;4.33;2.62;;;;;;;1.29;67.59;96551.56;1659795;84;21055;-85
2022/02/06 01:23:29;;;;;;;4.55;2.77;;;;;;;1.32;67.81;96544.95;1732661;81;20974;-86
2022/02/06 01:26:06;;;;;;;6.12;3.20;;;;;;;1.33;67.62;96531.21;1730051;81;21016;-85
2022/02/06 01:28:38;;;;;;;3.92;2.72;;;;;;;1.32;67.55;96532.15;1725750;81;21101;-85
2022/02/06 01:31:06;;;;;;;5.62;4.85;;;;;;;1.30;67.86;96523.75;1736450;81;20980;-86
2022/02/06 01:33:32;;;;;;;6.28;3.40;;;;;;;1.27;67.73;96517.13;1737524;81;21076;-86
2022/02/06 01:36:43;;;;;;;5.75;2.92;;;;;;;1.23;67.44;96514.47;1727697;81;21389;-85
2022/02/06 01:38:27;;;;;;;5.60;2.95;;;;;;;1.22;67.51;96505.17;1708621;81;21082;-85
2022/02/06 01:41:16;;;;;;;4.25;2.67;;;;;;;1.22;67.76;96501.80;1671032;84;21042;-85
2022/02/06 01:43:41;;;;;;;5.47;3.67;;;;;;;1.20;67.48;96493.77;1726693;81;21050;-86
2022/02/06 02:02:54;;;;;;;4.47;2.60;;;;;;;1.26;68.41;96473.73;1718737;81;21019;-85
2022/02/06 02:23:59;;;;;;;5.60;2.85;;;;;;;1.42;69.17;96460.87;1738011;81;20933;-86
2022/02/06 02:47:41;;;;;;;7.80;3.85;;;;;;;1.60;69.37;96430.86;1706864;83;21523;-85
2022/02/06 02:50:13;;;;;;;5.50;2.77;;;;;;;1.62;69.54;96415.71;1701717;83;21647;-85
2022/02/06 03:05:42;;;;;;;3.55;2.87;;;;;;;1.73;69.23;96418.69;1713388;83;21344;-86
2022/02/06 03:08:08;;;;;;;6.58;3.17;;;;;;;1.74;69.30;96422.87;1710922;83;21943;-85
2022/02/06 03:10:35;;;;;;;5.72;3.45;;;;;;;1.74;69.39;96422.87;1713224;83;21037;-85
2022/02/06 03:13:04;;;;;;;3.77;2.60;;;;;;;1.73;69.23;96415.66;1716041;83;21379;-85
2022/02/06 03:18:03;;;;;;;4.95;2.83;;;;;;;1.75;69.11;96406.55;1754916;81;21351;-85
2022/02/06 03:20:29;;;;;;;4.12;2.85;;;;;;;1.75;69.27;96412.96;1752779;80;21091;-86
2022/02/06 03:22:59;;;;;;;5.78;2.92;;;;;;;1.75;69.06;96407.84;1758308;81;20997;-86
2022/02/06 03:25:24;;;;;;;6.35;3.33;;;;;;;1.73;69.11;96404.59;1752562;81;21398;-85
2022/02/06 03:27:51;;;;;;;3.67;2.25;;;;;;;1.72;69.19;96399.94;1757787;81;21080;-86
2022/02/06 03:30:17;;;;;;;4.80;3.30;;;;;;;1.70;69.13;96396.70;1751496;81;21422;-85
2022/02/06 03:32:43;;;;;;;5.40;2.72;;;;;;;1.70;69.25;96401.83;1755366;81;21028;-85
2022/02/06 03:35:09;;;;;;;5.75;2.77;;;;;;;1.70;69.05;96396.70;1750585;80;21046;-85
2022/02/06 03:37:34;;;;;;;2.75;2.20;;;;;;;1.72;69.21;96396.57;1759525;81;21043;-85
2022/02/06 03:40:04;;;;;;;3.25;2.42;;;;;;;1.74;69.27;96394.69;1754415;81;21106;-85
2022/02/06 03:42:36;;;;;;;3.92;3.15;;;;;;;1.75;69.07;96379.66;1760373;81;21053;-85
2022/02/06 03:45:04;;;;;;;3.17;2.10;;;;;;;1.76;69.03;96388.50;1750826;81;21033;-86
2022/02/06 03:47:34;;;;;;;4.83;2.30;;;;;;;1.76;69.16;96379.53;1755687;81;20949;-85
2022/02/06 03:50:00;;;;;;;4.08;2.95;;;;;;;1.75;69.19;96385.59;1730154;81;21485;-86
2022/02/06 03:52:36;;;;;;;4.22;3.10;;;;;;;1.77;69.39;96370.09;1756808;81;21004;-85
2022/02/06 03:54:54;;;;;;;3.02;2.35;;;;;;;1.76;69.62;96376.97;1754040;81;20989;-85
2022/02/06 03:57:20;;;;;;;3.52;2.65;;;;;;;1.77;69.75;96377.78;1695256;84;21013;-86
2022/02/06 03:59:46;;;;;;;5.08;2.75;;;;;;;1.76;69.71;96373.13;1758856;80;21114;-86
2022/02/06 04:02:12;;;;;;;5.95;2.55;;;;;;;1.77;69.76;96368.81;1739142;82;22079;-85
2022/02/06 04:04:38;;;;;;;5.05;2.47;;;;;;;1.77;69.91;96379.06;1713906;82;21012;-86
2022/02/06 04:07:07;;;;;;;3.10;2.02;;;;;;;1.77;70.03;96376.03;1743486;82;21367;-85
2022/02/06 04:09:38;;;;;;;4.72;2.77;;;;;;;1.78;70.18;96364.84;1737223;82;20981;-86
2022/02/06 04:12:02;;;;;;;3.98;2.75;;;;;;;1.78;70.34;96371.24;1716863;82;21009;-86
2022/02/06 04:14:30;;;;;;;5.05;3.20;;;;;;;1.75;70.57;96366.37;1743370;82;21455;-85
2022/02/06 04:16:58;;;;;;;6.35;2.75;;;;;;;1.74;70.70;96370.35;1742231;81;21041;-86
2022/02/06 04:19:25;;;;;;;2.85;2.20;;;;;;;1.73;71.04;96368.73;1743935;82;21029;-86
2022/02/06 04:21:56;;;;;;;4.90;2.70;;;;;;;1.69;71.31;96368.66;1742341;82;21034;-86
2022/02/06 04:24:21;;;;;;;3.92;2.20;;;;;;;1.66;71.64;96359.48;1741922;82;21388;-86
2022/02/06 04:26:47;;;;;;;3.35;2.35;;;;;;;1.62;72.24;96352.96;1740123;82;20996;-86
2022/02/06 04:29:13;;;;;;;3.22;2.58;;;;;;;1.58;72.37;96347.76;1739933;82;21040;-86
2022/02/06 04:31:41;;;;;;;3.22;2.17;;;;;;;1.55;72.64;96352.33;1741555;82;20992;-85
2022/02/06 04:34:07;;;;;;;4.12;2.40;;;;;;;1.51;73.01;96338.97;1741827;81;20970;-86
2022/02/06 04:36:41;;;;;;;5.90;3.65;;;;;;;1.49;73.19;96331.89;1738760;81;21026;-86
2022/02/06 04:41:56;;;;;;;5.12;2.60;;;;;;;1.43;73.43;96331.91;1741603;82;21092;-86
2022/02/06 04:53:01;;;;;;;4.75;2.60;;;;;;;1.36;74.96;96311.60;1738498;82;21388;-85
2022/02/06 05:13:58;;;;;;;4.25;2.37;;;;;;;1.28;75.08;96256.84;1731205;81;20954;-86
2022/02/06 05:16:15;;;;;;;3.47;1.90;;;;;;;1.25;75.57;96252.80;1714943;81;20992;-85
2022/02/06 05:18:56;;;;;;;3.40;2.10;;;;;;;1.23;75.87;96248.27;1727811;81;20995;-86
2022/02/06 05:21:10;;;;;;;3.67;2.10;;;;;;;1.20;76.11;96260.86;1730045;81;21087;-86
2022/02/06 05:29:24;;;;;;;2.67;2.12;;;;;;;1.09;77.81;96244.77;1727187;81;21062;-86
2022/02/06 05:32:00;;;;;;;3.98;2.45;;;;;;;1.05;77.23;96240.38;1698858;81;21054;-85
2022/02/06 05:34:12;;;;;;;3.12;2.60;;;;;;;1.04;77.85;96244.34;1718808;81;21014;-85
2022/02/06 05:36:38;;;;;;;2.85;2.20;;;;;;;1.02;77.98;96235.98;1729636;81;20936;-86
2022/02/06 05:39:04;;;;;;;3.00;2.12;;;;;;;1.01;77.75;96221.09;1669616;84;21335;-86
2022/02/06 05:41:29;;;;;;;3.42;2.25;;;;;;;1.01;77.97;96215.17;1737519;80;20937;-86
2022/02/06 05:43:55;;;;;;;4.33;2.45;;;;;;;1.00;77.65;96213.09;1671391;84;21050;-86
2022/02/06 05:46:21;;;;;;;3.45;2.37;;;;;;;1.00;77.68;96219.95;1729715;81;21333;-85
2022/02/06 05:48:46;;;;;;;4.03;2.47;;;;;;;1.02;77.45;96205.28;1729307;81;20991;-85
2022/02/06 05:51:15;;;;;;;2.60;2.30;;;;;;;1.05;77.36;96205.02;1734565;81;21043;-86
2022/02/06 05:53:41;;;;;;;2.37;2.17;;;;;;;1.07;77.12;96195.47;1728150;81;21045;-85
2022/02/06 05:56:07;;;;;;;4.58;2.87;;;;;;;1.09;77.39;96195.67;1725567;81;21063;-86
2022/02/06 05:58:32;;;;;;;3.92;2.05;;;;;;;1.11;77.14;96191.70;1730790;81;21079;-86
2022/02/06 06:00:58;;;;;;;3.72;2.50;;;;;;;1.11;77.55;96186.12;1726581;81;21436;-85
2022/02/06 06:03:24;;;;;;;4.42;2.90;;;;;;;1.12;77.53;96182.62;1733810;81;21007;-85
2022/02/06 06:05:50;;;;;;;3.55;2.42;;;;;;;1.10;77.67;96178.57;1731729;81;21057;-86
2022/02/06 06:08:16;;;;;;;3.02;2.25;;;;;;;1.08;77.94;96177.89;1730871;81;22112;-86
2022/02/06 06:10:42;;;;;;;2.40;2.05;;;;;;;1.04;78.53;96168.86;1737303;81;21310;-86
2022/02/06 06:13:09;;;;;;;3.98;2.30;;;;;;;1.01;78.57;96159.70;1730901;81;20966;-85
2022/02/06 06:15:36;;;;;;;4.83;2.50;;;;;;;0.96;78.71;96156.69;1735550;81;20996;-85
2022/02/06 06:18:05;;;;;;;3.95;2.65;;;;;;;0.96;78.55;96145.65;1725263;81;21046;-86
2022/02/06 06:20:31;;;;;;;2.85;2.30;;;;;;;0.95;78.92;96144.03;1667021;84;21391;-86
2022/02/06 06:22:57;;;;;;;3.55;2.90;;;;;;;0.93;79.62;96149.75;1671593;84;21011;-85
2022/02/06 06:25:26;;;;;;;3.92;2.37;;;;;;;0.90;79.74;96146.98;1724217;81;21014;-86
2022/02/06 06:27:51;;;;;;;3.58;3.00;;;;;;;0.87;79.37;96162.59;1720600;81;21042;-85
2022/02/06 06:30:16;;;;;;;19.48;10.10;;;;;;;0.86;79.63;96159.69;1719173;81;21409;-85
2022/02/06 06:32:42;;;;;;;9.80;4.47;;;;;;;0.86;79.83;96160.97;1724502;81;20983;-85
2022/02/06 06:35:08;;;;;;;9.85;4.95;;;;;;;0.86;80.44;96160.50;1715921;81;21057;-85
2022/02/06 06:37:39;;;;;;;9.30;4.40;;;;;;;0.86;80.24;96164.80;1726135;81;20993;-86
2022/02/06 06:40:06;;;;;;;21.87;9.45;;;;;;;0.87;80.12;96160.03;1729518;81;20984;-86
2022/02/06 06:42:32;;;;;;;24.87;10.75;;;;;;;0.88;80.21;96153.98;1726386;81;21003;-85
2022/02/06 06:44:58;;;;;;;11.95;5.10;;;;;;;0.90;79.79;96146.98;1726550;81;20976;-86
2022/02/06 06:47:23;;;;;;;15.10;5.92;;;;;;;0.91;79.57;96135.80;1722022;81;21038;-86
2022/02/06 06:49:49;;;;;;;17.40;6.70;;;;;;;0.96;78.34;96146.45;1725381;81;21067;-86
2022/02/06 06:52:15;;;;;;;10.90;4.78;;;;;;;1.05;78.08;96150.81;1723289;81;21381;-86
2022/02/06 06:54:45;;;;;;;28.00;15.78;;;;;;;1.11;77.28;96122.61;1728745;81;21052;-85
2022/02/06 07:04:51;;;;;;;9.15;3.80;;;;;;;1.30;77.13;96129.09;1735332;82;21037;-85
2022/02/06 07:07:17;;;;;;;7.33;3.55;;;;;;;1.34;77.21;96119.40;1739007;82;21040;-85
2022/02/06 07:09:43;;;;;;;7.85;5.10;;;;;;;1.32;78.13;96116.97;1740085;82;21048;-85
2022/02/06 07:12:12;;;;;;;13.65;5.30;;;;;;;1.30;78.83;96120.58;1739753;81;21030;-85
2022/02/06 07:14:37;;;;;;;9.75;5.10;;;;;;;1.26;78.80;96110.27;1732545;82;21060;-85
2022/02/06 07:17:04;;;;;;;6.47;3.02;;;;;;;1.25;78.97;96119.70;1734636;82;21052;-85
2022/02/06 07:19:29;;;;;;;9.48;4.65;;;;;;;1.28;78.98;96110.94;1715387;82;22000;-85
2022/02/06 07:21:56;;;;;;;6.78;4.17;;;;;;;1.34;78.76;96110.44;1739996;82;20945;-85
2022/02/06 07:24:25;;;;;;;9.28;5.12;;;;;;;1.40;78.51;96110.71;1743412;82;21034;-85
2022/02/06 07:26:51;;;;;;;7.55;4.00;;;;;;;1.47;77.81;96107.17;1738527;82;21053;-85
2022/02/06 07:29:17;;;;;;;7.15;4.83;;;;;;;1.55;77.57;96104.74;1732719;82;21031;-86
2022/02/06 07:31:45;;;;;;;4.65;2.65;;;;;;;1.65;77.44;96099.17;1735169;82;21015;-85
2022/02/06 07:34:11;;;;;;;4.00;2.45;;;;;;;1.71;77.37;96088.85;1736712;82;21044;-85
2022/02/06 07:36:37;;;;;;;4.72;2.75;;;;;;;1.77;76.83;96080.15;1737100;81;21068;-85
2022/02/06 07:39:04;;;;;;;15.00;7.85;;;;;;;1.80;76.91;96094.47;1738231;82;21002;-85
2022/02/06 07:41:29;;;;;;;8.13;4.42;;;;;;;1.86;76.92;96094.39;1733337;82;21376;-86
2022/02/06 07:43:55;;;;;;;9.18;5.00;;;;;;;1.90;77.03;96092.70;1738898;82;21009;-85
2022/02/06 07:46:29;;;;;;;5.12;2.98;;;;;;;1.92;76.71;96078.47;1744160;82;21420;-85
2022/02/06 07:48:48;;;;;;;5.75;2.60;;;;;;;1.95;76.61;96092.28;1739791;82;20977;-85
2022/02/06 07:51:14;;;;;;;6.00;4.42;;;;;;;1.91;76.74;96087.91;1733315;82;21037;-85
2022/02/06 07:53:40;;;;;;;4.30;2.40;;;;;;;1.90;77.01;96086.29;1732018;82;21396;-85
2022/02/06 07:56:06;;;;;;;6.75;2.85;;;;;;;1.87;76.81;96069.11;1733240;82;20980;-86
2022/02/06 07:58:31;;;;;;;3.17;2.50;;;;;;;1.88;76.52;96073.28;1730219;82;20988;-85
2022/02/06 08:00:57;;;;;;;3.55;2.85;;;;;;;1.91;76.47;96069.16;1735004;81;21086;-85
2022/02/06 08:03:24;;;;;;;5.20;3.30;;;;;;;1.91;76.76;96062.76;1748604;81;21022;-86
2022/02/06 08:05:51;;;;;;;5.67;3.42;;;;;;;1.94;76.29;96074.81;1748195;81;20976;-86
2022/02/06 08:08:17;;;;;;;5.08;3.22;;;;;;;2.00;75.94;96065.80;1750717;81;20960;-86
2022/02/06 08:10:43;;;;;;;6.47;3.30;;;;;;;2.05;75.46;96073.41;1748311;81;20980;-85
2022/02/06 08:13:14;;;;;;;4.78;3.00;;;;;;;2.10;74.73;96066.10;1747002;81;20967;-85
2022/02/06 08:15:37;;;;;;;4.42;2.65;;;;;;;2.16;74.12;96074.21;1748377;80;21007;-86
2022/02/06 08:18:04;;;;;;;8.33;3.70;;;;;;;2.21;73.50;96057.46;1743398;81;20991;-85
2022/02/06 08:20:30;;;;;;;16.73;8.80;;;;;;;2.26;73.53;96060.88;1746271;81;21045;-85
2022/02/06 08:22:56;;;;;;;9.00;4.42;;;;;;;2.30;73.52;96069.47;1745757;81;20920;-85
2022/02/06 08:25:21;;;;;;;5.25;3.25;;;;;;;2.36;72.63;96067.63;1743614;81;21034;-85
2022/02/06 08:27:47;;;;;;;12.05;5.15;;;;;;;2.39;72.55;96067.34;1754141;81;20954;-85
2022/02/06 08:30:14;;;;;;;6.95;4.42;;;;;;;2.44;72.65;96068.23;1743538;81;21531;-85
2022/02/06 08:32:41;;;;;;;15.13;7.47;;;;;;;2.46;72.75;96079.62;1743458;80;20984;-85
2022/02/06 08:35:07;;;;;;;6.40;3.35;;;;;;;2.44;72.52;96084.89;1750155;80;21018;-86
2022/02/06 08:37:33;;;;;;;8.05;5.58;;;;;;;2.41;72.21;96085.95;1748744;81;21343;-85
2022/02/06 08:40:06;;;;;;;7.17;4.10;;;;;;;2.40;72.06;96079.69;1744128;81;20996;-85
2022/02/06 08:42:27;;;;;;;11.63;4.40;;;;;;;2.40;72.44;96077.13;1749622;80;22148;-85
2022/02/06 08:44:52;;;;;;;6.00;2.90;;;;;;;2.38;72.65;96075.17;1739505;81;20984;-85
2022/02/06 08:47:18;;;;;;;17.17;7.95;;;;;;;2.38;72.67;96067.00;1752875;81;21064;-85
2022/02/06 08:49:44;;;;;;;17.10;6.90;;;;;;;2.39;72.98;96069.91;1742447;81;20964;-85
2022/02/06 08:52:11;;;;;;;15.95;7.37;;;;;;;2.45;73.12;96053.17;1747949;81;20961;-85
2022/02/06 08:54:38;;;;;;;12.15;4.78;;;;;;;2.52;72.93;96052.94;1750078;81;21367;-85
2022/02/06 08:57:15;;;;;;;9.73;4.97;;;;;;;2.57;72.84;96052.03;1747995;81;20972;-85
2022/02/06 08:59:35;;;;;;;6.42;3.85;;;;;;;2.61;72.78;96057.23;1742784;81;20968;-84
2022/02/06 09:02:01;;;;;;;5.78;2.72;;;;;;;2.66;72.71;96041.41;1745858;81;21044;-85
2022/02/06 09:04:28;;;;;;;6.62;4.50;;;;;;;2.68;72.15;96038.23;1745475;81;21001;-85
2022/02/06 09:06:58;;;;;;;8.30;4.20;;;;;;;2.70;72.73;96037.14;1749442;81;20993;-85
2022/02/06 09:09:26;;;;;;;5.62;3.12;;;;;;;2.74;72.63;96041.98;1749441;81;21048;-85
2022/02/06 09:11:54;;;;;;;11.57;5.50;;;;;;;2.75;71.90;96030.29;1754421;80;20984;-85
2022/02/06 09:14:23;;;;;;;12.65;4.40;;;;;;;2.73;72.60;96023.21;1751617;80;21058;-85
2022/02/06 09:16:48;;;;;;;4.47;2.87;;;;;;;2.71;72.15;96025.12;1750767;81;21025;-85
2022/02/06 09:19:14;;;;;;;84.15;36.28;;;;;;;2.67;72.50;96017.38;1749537;81;21076;-84
2022/02/06 09:21:40;;;;;;;205.45;77.53;;;;;;;2.64;72.49;96030.02;1751773;81;21439;-85
2022/02/06 09:24:06;;;;;;;15.93;6.90;;;;;;;2.60;72.75;96021.44;1742015;80;20998;-85
2022/02/06 09:26:34;;;;;;;234.92;92.08;;;;;;;2.56;73.04;96021.39;1745822;81;21074;-86
2022/02/06 09:29:01;;;;;;;260.38;94.92;;;;;;;2.50;73.17;96025.81;1752052;81;21584;-85
2022/02/06 09:31:27;;;;;;;107.55;33.90;;;;;;;2.46;74.43;96021.45;1744039;81;21044;-86
2022/02/06 09:36:19;;;;;;;38.42;11.95;;;;;;;2.46;74.45;96026.58;1738424;81;21042;-86
2022/02/06 09:38:46;;;;;;;20.37;8.30;;;;;;;2.50;74.72;96025.34;1740177;81;20976;-85
2022/02/06 09:41:12;;;;;;;13.68;6.10;;;;;;;2.51;74.39;96008.20;1743311;81;21008;-85
2022/02/06 09:43:38;;;;;;;11.43;4.97;;;;;;;2.51;74.87;95995.38;1747892;81;21347;-86
2022/02/06 09:46:04;;;;;;;5.60;3.08;;;;;;;2.49;75.23;96003.69;1745137;81;21034;-86
2022/02/06 09:48:30;;;;;;;5.08;2.80;;;;;;;2.45;75.24;95994.19;1744171;81;20973;-86
2022/02/06 09:50:56;;;;;;;142.05;58.17;;;;;;;2.40;75.50;95971.52;1742034;80;22004;-86
2022/02/06 09:53:22;;;;;;;24.90;8.40;;;;;;;2.38;75.47;95981.11;1740274;80;21022;-85
2022/02/06 09:55:48;;;;;;;24.67;6.15;;;;;;;2.37;76.54;95976.93;1742563;80;20952;-85
2022/02/06 10:00:52;;;;;;;5.83;3.15;;;;;;;2.39;75.48;95976.31;1740815;81;21103;-85
2022/02/06 10:03:19;;;;;;;10.08;2.87;;;;;;;2.39;75.50;95969.91;1750961;81;21033;-86
2022/02/06 10:05:45;;;;;;;8.35;3.67;;;;;;;2.39;74.82;95958.36;1747412;81;20954;-86
2022/02/06 10:08:25;;;;;;;107.20;44.00;;;;;;;2.41;74.96;95947.96;1748782;81;21003;-85
2022/02/06 10:11:03;;;;;;;135.45;32.85;;;;;;;2.43;74.70;95935.80;1745389;81;20941;-85
2022/02/06 10:13:36;;;;;;;31.73;9.40;;;;;;;2.48;74.29;95918.73;1746237;80;21074;-84
2022/02/06 10:16:00;;;;;;;8.85;3.83;;;;;;;2.57;73.75;95929.39;1743646;81;20981;-84
2022/02/06 10:18:27;;;;;;;15.18;5.30;;;;;;;2.54;73.21;95910.45;1750895;81;21336;-84
2022/02/06 10:20:54;;;;;;;4.92;3.20;;;;;;;2.44;73.93;95909.23;1741512;81;20952;-84
2022/02/06 10:23:29;;;;;;;7.67;4.65;;;;;;;2.47;74.23;95914.08;1746246;81;21510;-84
2022/02/06 10:25:51;;;;;;;15.00;4.53;;;;;;;2.43;74.58;95906.79;1744974;81;20995;-84
2022/02/06 10:28:34;;;;;;;8.60;3.65;;;;;;;2.44;74.59;95905.84;1749417;81;21073;-85
2022/02/06 10:30:52;;;;;;;6.35;3.87;;;;;;;2.42;75.04;95904.70;1740403;81;21431;-84
2022/02/06 10:33:24;;;;;;;188.52;41.75;;;;;;;2.37;75.11;95903.86;1751316;81;21018;-83
2022/02/06 10:35:54;;;;;;;37.78;9.35;;;;;;;2.35;75.27;95893.41;1749393;81;20933;-85
2022/02/06 10:38:27;;;;;;;16.37;5.17;;;;;;;2.36;75.08;95880.45;1687364;85;21049;-85
2022/02/06 10:41:08;;;;;;;31.65;9.30;;;;;;;2.40;74.83;95875.36;1727642;81;20986;-84
2022/02/06 10:43:36;;;;;;;2.95;2.25;;;;;;;2.47;74.74;95873.05;1743299;80;20995;-85
2022/02/06 10:46:11;;;;;;;14.05;5.70;;;;;;;2.57;74.24;95869.13;1745320;81;20972;-85
2022/02/06 10:48:48;;;;;;;6.58;3.25;;;;;;;2.67;74.19;95867.31;1728611;81;21032;-84
2022/02/06 10:51:53;;;;;;;5.87;2.40;;;;;;;2.74;73.81;95863.20;1749859;81;21421;-85
2022/02/06 10:54:29;;;;;;;5.50;3.10;;;;;;;2.83;73.11;95842.28;1743490;81;21054;-85
2022/02/06 10:57:10;;;;;;;15.35;4.80;;;;;;;2.93;73.35;95842.55;1743838;81;21004;-84
2022/02/06 10:59:53;;;;;;;8.00;3.52;;;;;;;2.98;73.19;95839.06;1747799;81;20967;-84
2022/02/06 11:02:44;;;;;;;6.20;3.40;;;;;;;2.99;73.23;95823.18;1745837;81;21008;-84
2022/02/06 11:05:32;;;;;;;8.95;3.60;;;;;;;3.00;73.52;95834.58;1741472;81;21023;-84
2022/02/06 11:08:01;;;;;;;3.50;2.42;;;;;;;2.96;73.61;95824.77;1684363;84;21020;-85
2022/02/06 11:10:40;;;;;;;;;;;;;;;;;;;;;
2022/02/06 11:13:05;;;;;;;3.83;2.70;;;;;;;2.90;74.80;95836.88;1735739;80;21023;-84
2022/02/06 11:15:41;;;;;;;3.62;2.35;;;;;;;2.88;74.90;95825.48;1743078;81;21122;-84
2022/02/06 11:18:43;;;;;;;;;;;;;;;;;;;;;
2022/02/06 11:44:14;;;;;;;;;;;;;;;;;;;;;
2022/02/06 12:14:28;;;;;;;27.50;9.45;;;;;;;3.08;74.19;95765.00;1159047;123;21663;-85
2022/02/06 12:21:19;;;;;;;18.77;7.25;;;;;;;3.16;73.57;95762.50;1119135;126;21755;-85
2022/02/06 12:24:59;;;;;;;;;;;;;;;;;;;;;
2022/02/06 12:27:46;;;;;;;13.65;6.65;;;;;;;3.26;73.68;95756.31;1276273;107;21134;-83
2022/02/06 12:30:52;;;;;;;7.08;4.08;;;;;;;3.28;72.95;95747.98;1329579;104;21228;-83
2022/02/06 12:40:13;;;;;;;12.78;4.05;;;;;;;3.29;72.72;95734.66;1314985;108;21147;-83
2022/02/06 12:42:51;;;;;;;13.38;6.75;;;;;;;3.27;72.86;95728.88;1403340;96;21560;-83
2022/02/06 12:45:47;;;;;;;6.05;3.10;;;;;;;3.26;73.11;95733.69;1494030;91;21141;-83
2022/02/06 12:51:39;;;;;;;13.30;9.48;;;;;;;3.26;72.98;95742.67;1492714;94;21783;-83
2022/02/06 12:54:51;;;;;;;;;;;;;;;;;;;;;
2022/02/06 12:57:53;;;;;;;12.85;5.10;;;;;;;3.19;73.55;95735.23;1514743;93;21100;-83
2022/02/06 13:04:10;;;;;;;;;;;;;;;;;;;;;
2022/02/06 13:07:00;;;;;;;21.45;8.95;;;;;;;3.14;74.35;95710.51;1367910;103;21283;-84
2022/02/06 13:09:51;;;;;;;13.25;6.47;;;;;;;3.12;74.48;95718.36;1482507;94;21661;-83
2022/02/06 13:17:53;;;;;;;11.78;5.12;;;;;;;3.00;75.96;95697.75;1631982;86;21151;-84
2022/02/06 13:20:39;;;;;;;15.90;10.18;;;;;;;2.92;75.98;95684.85;1616218;86;21726;-83
2022/02/06 13:38:43;;;;;;;11.63;10.43;;;;;;;2.86;75.80;95636.72;1723686;81;21061;-84
2022/02/06 13:41:16;;;;;;;5.03;4.40;;;;;;;2.91;75.32;95644.75;1723673;81;21391;-84
2022/02/06 13:43:41;;;;;;;4.50;3.67;;;;;;;2.96;75.11;95624.59;1678946;84;20984;-83
2022/02/06 13:46:19;;;;;;;7.25;5.00;;;;;;;2.99;75.02;95618.67;1732023;81;20983;-83
2022/02/06 13:48:46;;;;;;;4.97;3.02;;;;;;;3.06;75.10;95624.46;1724128;81;21426;-83
2022/02/06 13:51:12;;;;;;;20.23;8.25;;;;;;;3.11;74.22;95610.23;1712457;81;21084;-83
2022/02/06 13:54:22;;;;;;;;;;;;;;;;;;;;;
2022/02/06 13:56:57;;;;;;;17.30;7.72;;;;;;;3.20;74.18;95618.27;1579677;89;27629;-83
2022/02/06 13:59:36;;;;;;;86.82;37.10;;;;;;;3.25;74.12;95605.80;1586294;89;21036;-83
2022/02/06 14:08:33;;;;;;;32.33;13.85;;;;;;;3.40;74.00;95593.62;1557706;87;21073;-84
2022/02/06 14:13:57;;;;;;;;;;;;;;;;;;;;;
2022/02/06 14:16:12;;;;;;;12.40;7.50;;;;;;;3.45;73.74;95593.49;1583048;87;21028;-85
2022/02/06 14:22:14;;;;;;;;;;;;;;;;;;;;;
2022/02/06 14:27:13;;;;;;;13.50;7.05;;;;;;;3.43;72.76;95577.44;1510330;93;21453;-87
2022/02/06 14:29:59;;;;;;;;;;;;;;;;;;;;;
2022/02/06 14:35:18;;;;;;;;;;;;;;;;;;;;;
2022/02/06 14:37:49;;;;;;;77.60;28.83;;;;;;;3.45;72.80;95550.31;1407322;100;21545;-84
2022/02/06 14:40:36;;;;;;;22.45;9.43;;;;;;;3.46;72.98;95554.48;1517717;89;21101;-84
2022/02/06 14:42:58;;;;;;;62.05;21.12;;;;;;;3.46;72.64;95547.58;1593512;89;21117;-84
2022/02/06 14:45:23;;;;;;;39.48;15.15;;;;;;;3.45;72.71;95542.13;1647323;83;21064;-85
2022/02/06 14:47:52;;;;;;;66.33;22.62;;;;;;;3.46;72.62;95533.94;1683244;83;21098;-84
2022/02/06 14:50:20;;;;;;;13.53;6.83;;;;;;;3.46;72.46;95530.09;1684731;83;21445;-84
2022/02/06 14:52:46;;;;;;;45.45;16.57;;;;;;;3.42;72.79;95524.47;1680837;83;22247;-84
2022/02/06 14:55:13;;;;;;;30.52;11.28;;;;;;;3.40;72.66;95527.65;1678885;83;21049;-84
2022/02/06 14:57:39;;;;;;;40.67;14.75;;;;;;;3.39;72.66;95522.67;1673665;83;21721;-84
2022/02/06 15:00:07;;;;;;;32.25;13.58;;;;;;;3.41;72.65;95528.45;1678282;83;21101;-85
2022/02/06 15:02:33;;;;;;;37.95;13.72;;;;;;;3.41;72.64;95518.18;1697238;81;20969;-84
2022/02/06 15:04:59;;;;;;;30.30;13.78;;;;;;;3.39;72.67;95520.91;1711296;81;21087;-84
2022/02/06 15:07:26;;;;;;;27.60;12.93;;;;;;;3.37;72.88;95521.55;1724673;81;21497;-85
2022/02/06 15:09:53;;;;;;;46.83;26.25;;;;;;;3.33;72.72;95518.98;1709314;81;21015;-84
2022/02/06 15:12:18;;;;;;;24.40;9.63;;;;;;;3.31;72.66;95511.92;1726647;81;22151;-83
2022/02/06 15:14:44;;;;;;;26.35;10.25;;;;;;;3.32;72.83;95503.26;1698512;81;21001;-84
2022/02/06 15:17:11;;;;;;;16.30;6.65;;;;;;;3.33;72.80;95505.34;1714414;81;21002;-83
2022/02/06 15:19:37;;;;;;;32.58;13.60;;;;;;;3.34;72.60;95494.11;1712426;81;21061;-84
2022/02/06 15:22:05;;;;;;;22.45;8.90;;;;;;;3.31;72.78;95489.62;1725969;80;21038;-83
2022/02/06 15:24:33;;;;;;;25.10;9.83;;;;;;;3.30;72.45;95482.08;1720239;81;21076;-83
2022/02/06 15:26:58;;;;;;;10.40;6.05;;;;;;;3.28;72.73;95482.72;1722843;81;21079;-84
2022/02/06 15:29:24;;;;;;;9.83;4.75;;;;;;;3.28;72.82;95469.40;1718040;81;21074;-84
2022/02/06 15:31:51;;;;;;;9.73;6.08;;;;;;;3.29;72.73;95476.63;1723064;81;21065;-83
2022/02/06 15:34:17;;;;;;;15.38;7.78;;;;;;;3.28;72.80;95482.72;1705320;81;21028;-83
2022/02/06 15:36:49;;;;;;;17.40;7.60;;;;;;;3.27;72.81;95486.25;1732528;81;21014;-84
2022/02/06 15:39:43;;;;;;;17.25;8.65;;;;;;;3.26;72.90;95460.25;1718899;81;21067;-84
2022/02/06 15:41:48;;;;;;;37.90;15.13;;;;;;;3.25;73.00;95462.02;1701518;81;21012;-84
2022/02/06 15:44:11;;;;;;;15.00;7.40;;;;;;;3.25;72.78;95452.20;1714165;81;20983;-83
2022/02/06 15:46:37;;;;;;;38.38;19.17;;;;;;;3.25;72.78;95429.93;1724765;81;21057;-83
2022/02/06 15:49:03;;;;;;;23.52;11.35;;;;;;;3.26;72.89;95433.30;1735326;81;21067;-84
2022/02/06 15:51:28;;;;;;;18.32;9.23;;;;;;;3.25;73.01;95438.08;1726123;81;21542;-84
2022/02/06 15:53:54;;;;;;;12.80;7.28;;;;;;;3.23;72.82;95418.99;1717282;81;20986;-84
2022/02/06 15:56:20;;;;;;;32.40;14.15;;;;;;;3.27;72.81;95429.77;1721675;81;20972;-84
2022/02/06 15:58:46;;;;;;;85.83;33.40;;;;;;;3.31;72.83;95406.66;1723069;81;21108;-84
2022/02/06 16:01:12;;;;;;;12.15;5.80;;;;;;;3.34;72.55;95396.54;1727936;81;21541;-83
2022/02/06 16:03:37;;;;;;;11.90;6.62;;;;;;;3.37;72.73;95397.50;1739898;81;21481;-83
2022/02/06 16:06:04;;;;;;;10.90;4.97;;;;;;;3.37;72.65;95394.92;1713327;81;21059;-83